createdAt,value
2022-08-14T00:00:23.021Z,0.20
2022-08-14T00:02:55.651Z,0.20
2022-08-14T00:05:28.457Z,0.20
2022-08-14T00:07:59.699Z,0.20
2022-08-14T00:10:52.713Z,0.30
2022-08-14T00:13:24.500Z,0.27
2022-08-14T00:15:55.130Z,0.20
2022-08-14T00:19:06.642Z,0.20
2022-08-14T00:21:22.436Z,0.30
2022-08-14T00:24:02.308Z,0.27
2022-08-14T00:26:32.687Z,0.30
2022-08-14T00:29:03.018Z,0.30
2022-08-14T00:31:43.986Z,0.30
2022-08-14T00:34:37.090Z,0.30
2022-08-14T00:37:06.951Z,0.20
2022-08-14T00:39:40.513Z,0.20
2022-08-14T00:42:52.533Z,0.30
2022-08-14T00:45:03.739Z,0.20
2022-08-14T00:47:44.802Z,0.20
2022-08-14T00:50:23.976Z,0.20
2022-08-14T00:52:56.828Z,0.20
2022-08-14T00:55:30.486Z,0.30
2022-08-14T00:58:17.456Z,0.20
2022-08-14T01:00:52.378Z,0.30
2022-08-14T01:03:30.846Z,0.30
2022-08-14T01:06:07.327Z,0.27
2022-08-14T01:08:57.921Z,0.30
2022-08-14T01:11:36.237Z,0.30
2022-08-14T01:14:25.586Z,0.20
2022-08-14T01:16:57.786Z,0.20
2022-08-14T01:19:47.939Z,0.20
2022-08-14T01:22:20.545Z,0.20
2022-08-14T01:24:52.365Z,0.20
2022-08-14T01:27:27.395Z,0.20
2022-08-14T01:30:04.517Z,0.30
2022-08-14T01:32:42.839Z,0.30
2022-08-14T01:35:20.775Z,0.20
2022-08-14T01:38:06.805Z,0.20
2022-08-14T01:40:42.106Z,0.30
2022-08-14T01:43:22.141Z,0.20
2022-08-14T01:46:06.710Z,0.20
2022-08-14T01:48:37.991Z,0.30
2022-08-14T01:51:18.869Z,0.20
2022-08-14T01:53:55.777Z,0.20
2022-08-14T01:56:39.099Z,0.20
2022-08-14T01:59:18.392Z,0.30
2022-08-14T02:01:57.986Z,0.20
2022-08-14T02:04:54.573Z,0.30
2022-08-14T02:07:44.669Z,0.30
2022-08-14T02:10:16.282Z,0.20
2022-08-14T02:12:56.827Z,0.30
2022-08-14T02:15:28.084Z,0.30
2022-08-14T02:18:02.283Z,0.27
2022-08-14T02:20:35.882Z,0.30
2022-08-14T02:23:06.450Z,0.30
2022-08-14T02:25:40.462Z,0.20
2022-08-14T02:28:26.100Z,0.23
2022-08-14T02:31:01.880Z,0.20
2022-08-14T02:33:33.718Z,0.20
2022-08-14T02:37:05.062Z,0.20
2022-08-14T02:39:00.573Z,0.30
2022-08-14T02:41:36.758Z,0.23
2022-08-14T02:44:12.220Z,0.20
2022-08-14T02:46:45.541Z,0.30
2022-08-14T02:49:22.282Z,0.20
2022-08-14T02:51:56.462Z,0.20
2022-08-14T02:54:27.642Z,0.20
2022-08-14T02:57:15.251Z,0.30
2022-08-14T02:59:52.560Z,0.30
2022-08-14T03:02:33.385Z,0.20
2022-08-14T03:05:12.892Z,0.30
2022-08-14T03:07:43.248Z,0.30
2022-08-14T03:10:27.838Z,0.20
2022-08-14T03:13:05.382Z,0.30
2022-08-14T03:15:47.025Z,0.20
2022-08-14T03:18:18.506Z,0.20
2022-08-14T03:20:48.831Z,0.20
2022-08-14T03:23:19.661Z,0.30
2022-08-14T03:25:50.470Z,0.30
2022-08-14T03:28:29.589Z,0.20
2022-08-14T03:31:03.492Z,0.30
2022-08-14T03:33:37.496Z,0.27
2022-08-14T03:37:51.282Z,0.30
2022-08-14T03:39:12.303Z,0.30
2022-08-14T03:41:52.583Z,0.30
2022-08-14T03:45:19.169Z,0.30
2022-08-14T03:47:15.369Z,0.20
2022-08-14T03:49:50.231Z,0.30
2022-08-14T03:52:38.083Z,0.30
2022-08-14T03:55:13.987Z,0.30
2022-08-14T03:57:44.671Z,0.30
2022-08-14T04:00:43.317Z,0.30
2022-08-14T04:03:09.216Z,0.30
2022-08-14T04:05:42.796Z,0.30
2022-08-14T04:08:23.114Z,0.40
2022-08-14T04:11:02.074Z,0.30
2022-08-14T04:13:34.621Z,0.30
2022-08-14T04:18:22.599Z,0.30
2022-08-14T04:20:55.316Z,0.30
2022-08-14T04:23:32.756Z,0.30
2022-08-14T04:26:04.863Z,0.30
2022-08-14T04:29:08.975Z,0.30
2022-08-14T04:32:57.600Z,0.30
2022-08-14T04:34:27.369Z,0.30
2022-08-14T04:37:22.359Z,0.30
2022-08-14T04:40:15.072Z,0.27
2022-08-14T04:43:17.000Z,0.30
2022-08-14T04:45:51.219Z,0.30
2022-08-14T04:48:39.545Z,0.30
2022-08-14T04:51:17.853Z,0.37
2022-08-14T04:53:50.890Z,0.30
2022-08-14T04:56:30.456Z,0.20
2022-08-14T04:59:09.629Z,0.30
2022-08-14T05:01:45.154Z,0.30
2022-08-14T05:04:20.806Z,0.30
2022-08-14T05:06:55.191Z,0.30
2022-08-14T05:09:28.954Z,0.30
2022-08-14T05:14:54.521Z,0.20
2022-08-14T05:17:32.198Z,0.30
2022-08-14T05:21:54.201Z,0.30
2022-08-14T05:23:11.172Z,0.30
2022-08-14T05:25:41.883Z,0.30
2022-08-14T05:28:16.258Z,0.40
2022-08-14T05:30:47.095Z,0.33
2022-08-14T05:33:19.188Z,0.30
2022-08-14T05:35:51.785Z,0.30
2022-08-14T05:38:31.163Z,0.30
2022-08-14T05:41:06.426Z,0.30
2022-08-14T05:43:41.519Z,0.30
2022-08-14T05:46:15.283Z,0.30
2022-08-14T05:48:45.846Z,0.30
2022-08-14T05:51:16.341Z,0.37
2022-08-14T05:54:01.857Z,0.30
2022-08-14T05:56:38.425Z,0.30
2022-08-14T05:59:09.076Z,0.30
2022-08-14T06:01:39.479Z,0.27
2022-08-14T06:04:09.673Z,0.30
2022-08-14T06:09:14.865Z,0.30
2022-08-14T06:11:45.287Z,0.30
2022-08-14T06:14:24.099Z,0.30
2022-08-14T06:16:54.891Z,0.30
2022-08-14T06:19:25.078Z,0.40
2022-08-14T06:21:58.242Z,0.30
2022-08-14T06:24:34.737Z,0.30
2022-08-14T06:27:10.013Z,0.20
2022-08-14T06:29:41.883Z,0.30
2022-08-14T06:32:36.536Z,0.37
2022-08-14T06:35:12.596Z,0.30
2022-08-14T06:37:49.455Z,0.30
2022-08-14T06:40:26.226Z,0.30
2022-08-14T06:43:00.525Z,0.30
2022-08-14T06:45:34.653Z,0.30
2022-08-14T06:48:12.672Z,0.30
2022-08-14T06:53:17.095Z,0.30
2022-08-14T06:58:32.914Z,0.30
2022-08-14T07:01:26.927Z,0.40
2022-08-14T07:04:22.864Z,0.30
2022-08-14T07:06:59.415Z,0.30
2022-08-14T07:09:44.015Z,0.30
2022-08-14T07:12:54.653Z,0.30
2022-08-14T07:15:13.161Z,0.30
2022-08-14T07:17:52.086Z,0.30
2022-08-14T07:20:30.735Z,0.30
2022-08-14T07:23:07.718Z,0.30
2022-08-14T07:25:40.202Z,0.20
2022-08-14T07:28:20.531Z,0.30
2022-08-14T07:30:51.885Z,0.33
2022-08-14T07:33:29.114Z,0.30
2022-08-14T07:36:17.525Z,0.30
2022-08-14T07:38:54.747Z,0.30
2022-08-14T07:41:34.025Z,0.37
2022-08-14T07:44:32.706Z,0.33
2022-08-14T07:49:29.670Z,0.30
2022-08-14T07:52:00.611Z,0.30
2022-08-14T07:54:33.763Z,0.30
2022-08-14T07:57:06.649Z,0.30
2022-08-14T07:59:47.125Z,0.30
2022-08-14T08:02:20.752Z,0.30
2022-08-14T08:04:59.334Z,0.30
2022-08-14T08:07:32.485Z,0.40
2022-08-14T08:10:46.851Z,0.30
2022-08-14T08:13:24.642Z,0.30
2022-08-14T08:16:01.261Z,0.30
2022-08-14T08:18:31.605Z,0.40
2022-08-14T08:21:06.493Z,0.40
2022-08-14T08:23:40.552Z,0.30
2022-08-14T08:26:21.524Z,0.30
2022-08-14T08:28:59.494Z,0.30
2022-08-14T08:31:34.892Z,0.20
2022-08-14T08:34:14.310Z,0.30
2022-08-14T08:36:48.802Z,0.30
2022-08-14T08:39:22.495Z,0.30
2022-08-14T08:41:54.022Z,0.30
2022-08-14T08:44:34.534Z,0.30
2022-08-14T08:47:08.446Z,0.30
2022-08-14T08:49:52.570Z,0.40
2022-08-14T08:52:31.720Z,0.20
2022-08-14T08:55:05.059Z,0.30
2022-08-14T08:57:38.349Z,0.30
2022-08-14T09:00:24.466Z,0.30
2022-08-14T09:03:00.058Z,0.30
2022-08-14T09:05:30.162Z,0.30
2022-08-14T09:08:30.134Z,0.30
2022-08-14T09:11:19.965Z,0.30
2022-08-14T09:13:53.502Z,0.40
2022-08-14T09:16:25.800Z,0.30
2022-08-14T09:18:58.506Z,0.30
2022-08-14T09:21:31.499Z,0.40
2022-08-14T09:24:28.647Z,0.30
2022-08-14T09:26:54.148Z,0.40
2022-08-14T09:29:24.486Z,0.30
2022-08-14T09:32:02.669Z,0.30
2022-08-14T09:34:59.171Z,0.30
2022-08-14T09:37:40.364Z,0.30
2022-08-14T09:40:20.570Z,0.40
2022-08-14T09:43:06.448Z,0.30
2022-08-14T09:45:53.497Z,0.30
2022-08-14T09:48:27.511Z,0.40
2022-08-14T09:54:17.944Z,0.30
2022-08-14T09:56:33.490Z,0.30
2022-08-14T09:59:15.987Z,0.40
2022-08-14T10:01:53.082Z,0.30
2022-08-14T10:04:36.682Z,0.30
2022-08-14T10:07:12.509Z,0.30
2022-08-14T10:10:00.172Z,0.40
2022-08-14T10:12:54.681Z,0.40
2022-08-14T10:15:27.835Z,0.30
2022-08-14T10:18:13.286Z,0.37
2022-08-14T10:20:55.886Z,0.30
2022-08-14T10:23:35.322Z,0.30
2022-08-14T10:26:08.634Z,0.30
2022-08-14T10:29:03.991Z,0.40
2022-08-14T10:31:44.466Z,0.40
2022-08-14T10:34:29.028Z,0.30
2022-08-14T10:37:14.170Z,0.30
2022-08-14T10:40:01.207Z,0.30
2022-08-14T10:42:38.830Z,0.30
2022-08-14T10:45:21.926Z,0.30
2022-08-14T10:48:07.993Z,0.30
2022-08-14T10:50:46.708Z,0.40
2022-08-14T10:53:17.311Z,0.30
2022-08-14T10:55:50.444Z,0.30
2022-08-14T10:58:34.202Z,0.30
2022-08-14T11:01:08.562Z,0.30
2022-08-14T11:03:56.053Z,0.30
2022-08-14T11:06:27.408Z,0.30
2022-08-14T11:08:57.705Z,0.30
2022-08-14T11:11:37.019Z,0.30
2022-08-14T11:14:09.776Z,0.30
2022-08-14T11:16:53.410Z,0.30
2022-08-14T11:19:25.924Z,0.40
2022-08-14T11:21:56.484Z,0.30
2022-08-14T11:24:54.304Z,0.30
2022-08-14T11:27:25.772Z,0.30
2022-08-14T11:30:48.934Z,0.30
2022-08-14T11:32:58.804Z,0.30
2022-08-14T11:35:44.272Z,0.30
2022-08-14T11:38:20.758Z,0.30
2022-08-14T11:40:52.585Z,0.30
2022-08-14T11:43:29.245Z,0.30
2022-08-14T11:46:03.556Z,0.30
2022-08-14T11:49:04.360Z,0.20
2022-08-14T11:51:36.220Z,0.30
2022-08-14T11:54:33.882Z,0.30
2022-08-14T11:57:06.255Z,0.30
2022-08-14T11:59:38.420Z,0.30
2022-08-14T12:03:01.600Z,0.20
2022-08-14T12:05:09.267Z,0.30
2022-08-14T12:07:49.909Z,0.23
2022-08-14T12:10:26.353Z,0.23
2022-08-14T12:12:57.813Z,0.20
2022-08-14T12:15:36.129Z,0.30
2022-08-14T12:18:07.114Z,0.20
2022-08-14T12:20:52.419Z,0.30
2022-08-14T12:23:25.556Z,0.30
2022-08-14T12:26:31.425Z,0.20
2022-08-14T12:29:09.287Z,0.30
2022-08-14T12:31:44.683Z,0.20
2022-08-14T12:34:20.452Z,0.30
2022-08-14T12:37:03.943Z,0.27
2022-08-14T12:39:39.402Z,0.30
2022-08-14T12:42:27.278Z,0.30
2022-08-14T12:45:03.645Z,0.30
2022-08-14T12:47:36.530Z,0.20
2022-08-14T12:50:07.569Z,0.30
2022-08-14T12:52:56.000Z,0.20
2022-08-14T12:56:17.533Z,0.20
2022-08-14T12:58:38.078Z,0.20
2022-08-14T13:01:23.452Z,0.20
2022-08-14T13:04:06.010Z,0.20
2022-08-14T13:06:37.351Z,0.20
2022-08-14T13:11:45.910Z,0.30
2022-08-14T13:14:18.653Z,0.40
2022-08-14T13:16:52.277Z,0.30
2022-08-14T13:19:29.033Z,0.30
2022-08-14T13:22:09.515Z,0.30
2022-08-14T13:24:41.784Z,0.23
2022-08-14T13:27:14.695Z,0.20
2022-08-14T13:29:47.159Z,0.30
2022-08-14T13:32:18.658Z,0.30
2022-08-14T13:34:52.647Z,0.30
2022-08-14T13:37:23.557Z,0.20
2022-08-14T13:39:57.382Z,0.30
2022-08-14T13:42:31.475Z,0.20
2022-08-14T13:45:03.741Z,0.20
2022-08-14T13:47:34.686Z,0.23
2022-08-14T13:50:10.426Z,0.20
2022-08-14T13:52:52.450Z,0.23
2022-08-14T13:55:25.647Z,0.30
2022-08-14T13:58:03.518Z,0.23
2022-08-14T14:00:51.754Z,0.20
2022-08-14T14:03:25.019Z,0.30
2022-08-14T14:05:57.011Z,0.20
2022-08-14T14:08:46.092Z,0.20
2022-08-14T14:11:20.670Z,0.20
2022-08-14T14:13:53.771Z,0.20
2022-08-14T14:16:30.265Z,0.20
2022-08-14T14:19:09.606Z,0.20
2022-08-14T14:21:41.951Z,0.30
2022-08-14T14:24:15.273Z,0.20
2022-08-14T14:26:50.658Z,0.20
2022-08-14T14:29:26.459Z,0.30
2022-08-14T14:31:59.849Z,0.20
2022-08-14T14:34:32.597Z,0.20
2022-08-14T14:37:05.102Z,0.20
2022-08-14T14:40:53.583Z,0.20
2022-08-14T14:42:32.265Z,0.20
2022-08-14T14:45:15.506Z,0.20
2022-08-14T14:47:47.328Z,0.20
2022-08-14T14:50:19.041Z,0.20
2022-08-14T14:52:50.414Z,0.27
2022-08-14T14:55:21.943Z,0.20
2022-08-14T14:57:55.042Z,0.20
2022-08-14T15:00:30.951Z,0.30
2022-08-14T15:03:01.493Z,0.20
2022-08-14T15:05:33.062Z,0.20
2022-08-14T15:08:03.228Z,0.20
2022-08-14T15:10:39.914Z,0.20
2022-08-14T15:13:10.495Z,0.30
2022-08-14T15:15:42.648Z,0.20
2022-08-14T15:18:36.870Z,0.20
2022-08-14T15:21:03.627Z,0.20
2022-08-14T15:23:44.697Z,0.20
2022-08-14T15:26:23.684Z,0.20
2022-08-14T15:29:05.922Z,0.20
2022-08-14T15:31:38.833Z,0.20
2022-08-14T15:34:43.217Z,0.20
2022-08-14T15:37:06.658Z,0.20
2022-08-14T15:39:44.305Z,0.20
2022-08-14T15:42:16.532Z,0.20
2022-08-14T15:44:57.331Z,0.10
2022-08-14T15:47:35.292Z,0.20
2022-08-14T15:50:13.550Z,0.20
2022-08-14T15:52:44.817Z,0.20
2022-08-14T15:55:16.757Z,0.10
2022-08-14T15:58:02.050Z,0.20
2022-08-14T16:00:52.873Z,0.20
2022-08-14T16:03:35.774Z,0.20
2022-08-14T16:06:11.051Z,0.20
2022-08-14T16:08:50.470Z,0.20
2022-08-14T16:11:32.846Z,0.10
2022-08-14T16:14:06.906Z,0.20
2022-08-14T16:16:51.025Z,0.20
2022-08-14T16:19:31.020Z,0.20
2022-08-14T16:22:57.367Z,0.20
2022-08-14T16:25:02.235Z,0.17
2022-08-14T16:27:47.956Z,0.10
2022-08-14T16:30:27.657Z,0.20
2022-08-14T16:32:59.498Z,0.20
2022-08-14T16:35:43.272Z,0.20
2022-08-14T16:38:46.458Z,0.20
2022-08-14T16:41:23.409Z,0.10
2022-08-14T16:43:58.933Z,0.10
2022-08-14T16:46:32.582Z,0.20
2022-08-14T16:49:03.562Z,0.10
2022-08-14T16:51:38.456Z,0.10
2022-08-14T16:54:20.884Z,0.10
2022-08-14T16:57:16.900Z,0.10
2022-08-14T16:59:52.708Z,0.10
2022-08-14T17:02:36.677Z,0.10
2022-08-14T17:05:23.320Z,0.10
2022-08-14T17:08:32.761Z,0.10
2022-08-14T17:11:11.899Z,0.10
2022-08-14T17:13:59.550Z,0.10
2022-08-14T17:16:37.467Z,0.10
2022-08-14T17:19:13.772Z,0.10
2022-08-14T17:21:47.050Z,0.10
2022-08-14T17:24:56.742Z,0.00
2022-08-14T17:27:18.302Z,0.10
2022-08-14T17:29:56.262Z,0.10
2022-08-14T17:32:55.959Z,0.00
2022-08-14T17:35:57.465Z,0.10
2022-08-14T17:38:38.559Z,0.00
2022-08-14T17:41:27.266Z,0.10
2022-08-14T17:44:19.860Z,0.10
2022-08-14T17:46:57.092Z,0.00
2022-08-14T17:49:32.257Z,0.08
2022-08-14T17:52:07.711Z,0.10
2022-08-14T17:54:52.601Z,0.10
2022-08-14T17:57:35.321Z,0.10
2022-08-14T18:00:18.345Z,0.10
2022-08-14T18:02:50.371Z,0.10
2022-08-14T18:05:22.845Z,0.10
2022-08-14T18:08:31.729Z,0.10
2022-08-14T18:10:54.940Z,0.10
2022-08-14T18:13:52.028Z,0.10
2022-08-14T18:16:22.802Z,0.10
2022-08-14T18:18:54.027Z,0.10
2022-08-14T18:21:56.004Z,0.10
2022-08-14T18:24:30.087Z,0.10
2022-08-14T18:27:09.285Z,0.10
2022-08-14T18:29:55.534Z,0.00
2022-08-14T18:32:54.928Z,0.00
2022-08-14T18:35:45.423Z,0.00
2022-08-14T18:38:25.768Z,0.10
2022-08-14T18:41:36.802Z,0.00
2022-08-14T18:44:10.672Z,0.10
2022-08-14T18:47:18.118Z,0.10
2022-08-14T18:50:26.540Z,0.00
2022-08-14T18:53:11.002Z,0.08
2022-08-14T18:55:54.112Z,0.00
2022-08-14T18:58:34.095Z,0.00
2022-08-14T19:01:06.527Z,0.10
2022-08-14T19:04:01.244Z,0.00
2022-08-14T19:06:56.500Z,0.00
2022-08-14T19:09:58.199Z,0.00
2022-08-14T19:13:12.132Z,0.00
2022-08-14T19:15:56.144Z,0.00
2022-08-14T19:18:29.695Z,0.00
2022-08-14T19:21:01.676Z,0.10
2022-08-14T19:23:42.315Z,0.10
2022-08-14T19:26:36.224Z,0.10
2022-08-14T19:29:26.208Z,0.08
2022-08-14T19:32:28.916Z,0.00
2022-08-14T19:35:02.413Z,0.10
2022-08-14T19:37:52.038Z,0.00
2022-08-14T19:40:36.261Z,0.00
2022-08-14T19:43:09.038Z,0.10
2022-08-14T19:45:40.617Z,0.10
2022-08-14T19:48:15.724Z,0.10
2022-08-14T19:50:48.240Z,0.10
2022-08-14T19:53:19.481Z,0.10
2022-08-14T19:56:02.786Z,0.05
2022-08-14T19:58:55.010Z,0.10
2022-08-14T20:01:36.697Z,0.10
2022-08-14T20:04:46.726Z,0.10
2022-08-14T20:07:04.379Z,0.10
2022-08-14T20:11:06.403Z,0.03
2022-08-14T20:12:36.734Z,0.10
2022-08-14T20:15:47.172Z,0.00
2022-08-14T20:18:48.661Z,0.10
2022-08-14T20:21:16.598Z,0.10
2022-08-14T20:23:47.845Z,0.10
2022-08-14T20:26:31.232Z,0.10
2022-08-14T20:29:07.216Z,0.00
2022-08-14T20:31:38.751Z,0.00
2022-08-14T20:34:18.957Z,0.10
2022-08-14T20:37:10.016Z,0.00
2022-08-14T20:39:45.274Z,0.00
2022-08-14T20:42:43.662Z,0.10
2022-08-14T20:45:25.031Z,0.00
2022-08-14T20:48:01.993Z,0.00
2022-08-14T20:50:45.171Z,0.10
2022-08-14T20:53:32.439Z,0.10
2022-08-14T20:56:28.348Z,0.03
2022-08-14T20:58:55.476Z,0.10
2022-08-14T21:01:36.681Z,0.10
2022-08-14T21:04:22.246Z,0.00
2022-08-14T21:07:25.443Z,0.10
2022-08-14T21:10:04.717Z,0.10
2022-08-14T21:12:36.675Z,0.03
2022-08-14T21:15:10.104Z,0.10
2022-08-14T21:17:43.548Z,0.00
2022-08-14T21:20:25.260Z,0.10
2022-08-14T21:23:00.436Z,0.10
2022-08-14T21:25:32.260Z,0.10
2022-08-14T21:28:04.778Z,0.10
2022-08-14T21:30:51.485Z,0.10
2022-08-14T21:33:25.936Z,0.00
2022-08-14T21:35:59.220Z,0.10
2022-08-14T21:38:33.649Z,0.10
2022-08-14T21:41:42.677Z,0.10
2022-08-14T21:44:18.086Z,0.10
2022-08-14T21:46:54.109Z,0.10
2022-08-14T21:49:37.429Z,0.10
2022-08-14T21:52:52.048Z,0.10
2022-08-14T21:55:08.595Z,0.10
2022-08-14T21:58:46.196Z,0.10
2022-08-14T22:00:42.474Z,0.10
2022-08-14T22:03:17.790Z,0.10
2022-08-14T22:05:51.960Z,0.10
2022-08-14T22:08:26.795Z,0.10
2022-08-14T22:10:59.205Z,0.10
2022-08-14T22:13:32.560Z,0.10
2022-08-14T22:16:03.036Z,0.10
2022-08-14T22:18:34.238Z,0.10
2022-08-14T22:21:16.613Z,0.10
2022-08-14T22:23:47.405Z,0.10
2022-08-14T22:26:22.909Z,0.10
2022-08-14T22:29:00.924Z,0.10
2022-08-14T22:31:35.106Z,0.10
2022-08-14T22:34:10.421Z,0.10
2022-08-14T22:36:50.845Z,0.10
2022-08-14T22:40:17.104Z,0.10
2022-08-14T22:42:21.492Z,0.10
2022-08-14T22:44:56.730Z,0.10
2022-08-14T22:47:40.403Z,0.10
2022-08-14T22:50:29.441Z,0.10
2022-08-14T22:53:07.260Z,0.10
2022-08-14T22:55:40.734Z,0.10
2022-08-14T22:58:10.837Z,0.10
2022-08-14T23:00:47.985Z,0.10
2022-08-14T23:03:20.211Z,0.10
2022-08-14T23:05:52.596Z,0.10
2022-08-14T23:09:00.326Z,0.10
2022-08-14T23:11:16.015Z,0.10
2022-08-14T23:13:47.131Z,0.10
2022-08-14T23:16:20.140Z,0.10
2022-08-14T23:18:53.517Z,0.10
2022-08-14T23:21:28.820Z,0.20
2022-08-14T23:24:03.077Z,0.10
2022-08-14T23:26:48.443Z,0.20
2022-08-14T23:29:22.505Z,0.10
2022-08-14T23:31:53.166Z,0.10
2022-08-14T23:34:25.371Z,0.10
2022-08-14T23:37:03.937Z,0.17
2022-08-14T23:39:39.103Z,0.10
2022-08-14T23:42:17.991Z,0.20
2022-08-14T23:44:49.626Z,0.10
2022-08-14T23:47:26.373Z,0.20
2022-08-14T23:50:04.160Z,0.20
2022-08-14T23:53:04.225Z,0.13
2022-08-14T23:55:36.316Z,0.20
2022-08-14T23:58:29.131Z,0.20
